createdAt,value
2019-05-25T00:00:22.172Z,97086.56
2019-05-25T00:05:27.750Z,97092.07
2019-05-25T00:10:32.393Z,97096.87
2019-05-25T00:15:38.816Z,97097.31
2019-05-25T00:20:45.247Z,97097.02
2019-05-25T00:25:51.218Z,97104.48
2019-05-25T00:30:57.136Z,97099.02
2019-05-25T00:36:02.044Z,97103.48
2019-05-25T00:41:07.409Z,97103.45
2019-05-25T00:46:12.448Z,97109.88
2019-05-25T00:51:18.051Z,97114.48
2019-05-25T00:56:22.947Z,97112.85
2019-05-25T01:01:27.693Z,97115.16
2019-05-25T01:06:32.768Z,97108.16
2019-05-25T01:11:37.491Z,97106.19
2019-05-25T01:16:42.239Z,97109.98
2019-05-25T01:21:47.079Z,97105.02
2019-05-25T01:26:51.822Z,97108.23
2019-05-25T01:31:56.461Z,97112.97
2019-05-25T01:37:01.209Z,97107.92
2019-05-25T01:42:05.845Z,97112.41
2019-05-25T01:47:10.589Z,97110.91
2019-05-25T01:52:15.171Z,97102.27
2019-05-25T01:57:19.770Z,97097.94
2019-05-25T02:02:24.418Z,97103.66
2019-05-25T02:07:29.059Z,97100.99
2019-05-25T02:12:33.692Z,97103.58
2019-05-25T02:17:38.312Z,97110.78
2019-05-25T02:22:42.976Z,97115.31
2019-05-25T02:27:47.719Z,97119.41
2019-05-25T02:32:52.466Z,97127.80
2019-05-25T02:37:59.338Z,97135.99
2019-05-25T02:43:04.094Z,97130.41
2019-05-25T02:48:08.843Z,97135.79
2019-05-25T02:53:13.689Z,97132.09
2019-05-25T02:58:19.563Z,97135.45
2019-05-25T03:03:24.201Z,97132.60
2019-05-25T03:08:29.826Z,97144.38
2019-05-25T03:13:34.612Z,97145.80
2019-05-25T03:18:39.351Z,97146.12
2019-05-25T03:23:43.991Z,97147.97
2019-05-25T03:28:48.736Z,97150.31
2019-05-25T03:33:53.481Z,97158.59
2019-05-25T03:38:58.226Z,97149.48
2019-05-25T03:44:02.866Z,97163.69
2019-05-25T03:49:07.817Z,97176.38
2019-05-25T03:54:12.556Z,97177.86
2019-05-25T03:59:18.324Z,97187.23
2019-05-25T04:04:24.298Z,97184.06
2019-05-25T04:09:29.046Z,97189.05
2019-05-25T04:14:33.684Z,97191.27
2019-05-25T04:19:38.426Z,97189.69
2019-05-25T04:24:43.170Z,97191.42
2019-05-25T04:29:49.462Z,97194.86
2019-05-25T04:34:54.025Z,97202.68
2019-05-25T04:39:58.731Z,97207.29
2019-05-25T04:45:03.806Z,97209.53
2019-05-25T04:50:08.595Z,97218.40
2019-05-25T04:55:13.372Z,97216.63
2019-05-25T05:00:20.779Z,97223.66
2019-05-25T05:05:25.519Z,97222.25
2019-05-25T05:10:30.154Z,97220.52
2019-05-25T05:15:34.903Z,97220.02
2019-05-25T05:20:39.652Z,97227.98
2019-05-25T05:25:44.395Z,97223.69
2019-05-25T05:30:49.147Z,97217.16
2019-05-25T05:35:53.697Z,97220.92
2019-05-25T05:40:58.732Z,97218.57
2019-05-25T05:46:03.476Z,97222.30
2019-05-25T05:51:09.505Z,97221.19
2019-05-25T05:56:15.667Z,97228.79
2019-05-25T06:01:21.598Z,97224.78
2019-05-25T06:06:28.701Z,97218.59
2019-05-25T06:11:34.993Z,97207.78
2019-05-25T06:16:40.445Z,97212.74
2019-05-25T06:21:45.116Z,97206.94
2019-05-25T06:26:51.149Z,97204.25
2019-05-25T06:31:56.005Z,97209.30
2019-05-25T06:37:00.848Z,97201.13
2019-05-25T06:42:05.593Z,97201.88
2019-05-25T06:47:10.325Z,97206.59
2019-05-25T06:52:15.984Z,97204.76
2019-05-25T06:57:21.031Z,97206.55
2019-05-25T07:02:27.506Z,97205.70
2019-05-25T07:07:38.003Z,97200.64
2019-05-25T07:12:44.669Z,97200.61
2019-05-25T07:17:52.890Z,97211.63
2019-05-25T07:22:58.078Z,97207.70
2019-05-25T07:28:02.923Z,97204.86
2019-05-25T07:33:07.770Z,97205.66
2019-05-25T07:38:12.720Z,97207.86
2019-05-25T07:43:18.450Z,97204.95
2019-05-25T07:48:24.429Z,97196.04
2019-05-25T07:53:29.406Z,97207.70
2019-05-25T07:58:34.682Z,97208.42
2019-05-25T08:03:40.782Z,97208.30
2019-05-25T08:08:45.554Z,97213.18
2019-05-25T08:13:51.254Z,97216.39
2019-05-25T08:18:57.778Z,97211.42
2019-05-25T08:24:02.592Z,97217.33
2019-05-25T08:29:07.235Z,97223.61
2019-05-25T08:34:12.467Z,97218.84
2019-05-25T08:39:17.294Z,97219.45
2019-05-25T08:44:22.543Z,97221.63
2019-05-25T08:49:32.546Z,97217.30
2019-05-25T08:54:37.695Z,97218.30
2019-05-25T08:59:42.562Z,97222.45
2019-05-25T09:04:50.411Z,97224.81
2019-05-25T09:09:55.419Z,97219.45
2019-05-25T09:15:00.162Z,97226.91
2019-05-25T09:20:08.200Z,97219.35
2019-05-25T09:25:14.579Z,97220.38
2019-05-25T09:30:19.206Z,97223.08
2019-05-25T09:35:25.688Z,97223.95
2019-05-25T09:40:30.395Z,97222.50
2019-05-25T09:45:35.280Z,97211.20
2019-05-25T09:50:40.126Z,97220.23
2019-05-25T09:55:48.503Z,97228.30
2019-05-25T10:00:53.712Z,97228.24
2019-05-25T10:05:58.558Z,97226.45
2019-05-25T10:11:03.304Z,97228.02
2019-05-25T10:16:08.165Z,97223.34
2019-05-25T10:21:14.999Z,97238.00
2019-05-25T10:26:22.882Z,97232.18
2019-05-25T10:31:25.862Z,97225.55
2019-05-25T10:36:30.607Z,97235.86
2019-05-25T10:41:35.454Z,97259.59
2019-05-25T10:46:41.306Z,97255.72
2019-05-25T10:51:47.096Z,97243.20
2019-05-25T10:56:51.842Z,97248.70
2019-05-25T11:01:56.592Z,97256.20
2019-05-25T11:07:01.326Z,97261.55
2019-05-25T11:12:06.075Z,97266.82
2019-05-25T11:17:10.948Z,97275.02
2019-05-25T11:22:15.781Z,97281.05
2019-05-25T11:27:20.503Z,97287.84
2019-05-25T11:32:25.253Z,97296.22
2019-05-25T11:37:30.503Z,97287.77
2019-05-25T11:42:35.454Z,97290.91
2019-05-25T11:47:40.199Z,97285.43
2019-05-25T11:52:45.544Z,97287.39
2019-05-25T11:57:50.503Z,97294.93
2019-05-25T12:02:55.351Z,97285.91
2019-05-25T12:08:00.421Z,97290.98
2019-05-25T12:13:05.250Z,97287.13
2019-05-25T12:18:09.994Z,97280.14
2019-05-25T12:23:14.775Z,97271.16
2019-05-25T12:28:19.594Z,97265.50
2019-05-25T12:33:24.329Z,97264.62
2019-05-25T12:38:29.344Z,97266.09
2019-05-25T12:43:34.226Z,97262.13
2019-05-25T12:48:40.198Z,97258.44
2019-05-25T12:53:45.253Z,97260.18
2019-05-25T12:58:50.469Z,97252.79
2019-05-25T13:03:56.888Z,97255.49
2019-05-25T13:09:01.662Z,97255.05
2019-05-25T13:14:14.745Z,97248.56
2019-05-25T13:19:13.891Z,97249.46
2019-05-25T13:24:18.532Z,97249.81
2019-05-25T13:29:23.472Z,97246.91
2019-05-25T13:34:28.333Z,97245.52
2019-05-25T13:39:34.910Z,97245.39
2019-05-25T13:44:40.560Z,97243.17
2019-05-25T13:49:46.956Z,97231.78
2019-05-25T13:54:52.985Z,97236.16
2019-05-25T13:59:59.649Z,97231.08
2019-05-25T14:05:05.670Z,97237.22
2019-05-25T14:10:10.667Z,97233.33
2019-05-25T14:15:15.651Z,97228.66
2019-05-25T14:20:20.845Z,97238.09
2019-05-25T14:25:25.589Z,97238.86
2019-05-25T14:30:33.614Z,97243.80
2019-05-25T14:35:38.461Z,97245.30
2019-05-25T14:40:43.305Z,97241.48
2019-05-25T14:45:48.154Z,97245.03
2019-05-25T14:50:52.898Z,97244.48
2019-05-25T14:55:57.540Z,97246.36
2019-05-25T15:01:02.485Z,97239.66
2019-05-25T15:06:07.330Z,97238.61
2019-05-25T15:11:15.290Z,97242.27
2019-05-25T15:16:21.635Z,97241.94
2019-05-25T15:21:26.722Z,97234.96
2019-05-25T15:26:31.641Z,97241.27
2019-05-25T15:31:36.279Z,97244.56
2019-05-25T15:36:41.230Z,97237.48
2019-05-25T15:41:45.791Z,97237.70
2019-05-25T15:46:50.521Z,97245.73
2019-05-25T15:51:55.179Z,97248.78
2019-05-25T15:57:00.310Z,97250.65
2019-05-25T16:02:05.986Z,97252.33
2019-05-25T16:07:10.709Z,97257.14
2019-05-25T16:12:15.868Z,97255.01
2019-05-25T16:17:21.639Z,97254.75
2019-05-25T16:22:28.206Z,97256.50
2019-05-25T16:27:32.964Z,97265.58
2019-05-25T16:33:09.766Z,97265.86
2019-05-25T16:37:44.139Z,97270.51
2019-05-25T16:42:48.953Z,97279.98
2019-05-25T16:47:54.222Z,97280.16
2019-05-25T16:52:58.941Z,97277.97
2019-05-25T16:58:03.510Z,97277.50
2019-05-25T17:03:08.223Z,97283.45
2019-05-25T17:08:13.017Z,97278.38
2019-05-25T17:13:17.712Z,97287.91
2019-05-25T17:18:22.354Z,97289.56
2019-05-25T17:23:27.099Z,97290.50
2019-05-25T17:28:31.941Z,97299.75
2019-05-25T17:33:45.893Z,97296.08
2019-05-25T17:38:43.176Z,97303.14
2019-05-25T17:43:47.810Z,97303.45
2019-05-25T17:48:52.555Z,97311.86
2019-05-25T17:53:58.839Z,97315.28
2019-05-25T17:59:03.597Z,97319.09
2019-05-25T18:04:10.686Z,97332.45
2019-05-25T18:09:16.449Z,97336.83
2019-05-25T18:14:21.121Z,97341.89
2019-05-25T18:19:26.275Z,97337.84
2019-05-25T18:24:31.204Z,97342.59
2019-05-25T18:29:37.211Z,97348.57
2019-05-25T18:34:41.809Z,97361.45
2019-05-25T18:39:48.201Z,97367.73
2019-05-25T18:44:54.171Z,97374.44
2019-05-25T18:49:59.010Z,97384.07
2019-05-25T18:55:06.059Z,97387.88
2019-05-25T19:00:11.129Z,97392.42
2019-05-25T19:05:16.304Z,97405.95
2019-05-25T19:10:22.199Z,97410.44
2019-05-25T19:15:27.036Z,97425.75
2019-05-25T19:20:34.051Z,97435.92
2019-05-25T19:25:39.635Z,97444.91
2019-05-25T19:30:45.646Z,97461.05
2019-05-25T19:35:54.043Z,97463.23
2019-05-25T19:40:58.198Z,97467.19
2019-05-25T19:46:03.069Z,97485.34
2019-05-25T19:51:10.622Z,97494.03
2019-05-25T19:56:17.912Z,97492.22
2019-05-25T20:01:22.612Z,97481.36
2019-05-25T20:06:27.817Z,97465.80
2019-05-25T20:11:32.830Z,97470.89
2019-05-25T20:16:37.688Z,97482.66
2019-05-25T20:21:42.305Z,97484.00
2019-05-25T20:26:46.887Z,97493.92
2019-05-25T20:31:53.241Z,97506.81
2019-05-25T20:36:58.936Z,97510.52
2019-05-25T20:42:04.788Z,97515.26
2019-05-25T20:47:11.163Z,97509.16
2019-05-25T20:52:15.936Z,97509.09
2019-05-25T20:57:20.759Z,97513.05
2019-05-25T21:02:25.589Z,97504.38
2019-05-25T21:07:30.329Z,97509.81
2019-05-25T21:12:35.720Z,97511.52
2019-05-25T21:17:40.759Z,97505.99
2019-05-25T21:22:46.689Z,97504.95
2019-05-25T21:27:54.058Z,97507.98
2019-05-25T21:33:00.085Z,97518.91
2019-05-25T21:38:05.630Z,97515.61
2019-05-25T21:43:10.792Z,97508.44
2019-05-25T21:48:16.193Z,97512.77
2019-05-25T21:53:21.114Z,97519.80
2019-05-25T21:58:25.967Z,97526.70
2019-05-25T22:03:30.852Z,97534.66
2019-05-25T22:08:35.552Z,97535.78
2019-05-25T22:13:41.291Z,97533.19
2019-05-25T22:18:46.055Z,97536.56
2019-05-25T22:23:50.803Z,97542.58
2019-05-25T22:28:55.870Z,97552.81
2019-05-25T22:34:00.833Z,97556.26
2019-05-25T22:39:08.023Z,97564.11
2019-05-25T22:44:12.578Z,97558.03
2019-05-25T22:49:17.282Z,97572.52
2019-05-25T22:54:21.843Z,97570.42
2019-05-25T22:59:26.568Z,97565.98
2019-05-25T23:04:31.308Z,97562.89
2019-05-25T23:09:36.052Z,97550.43
2019-05-25T23:14:40.792Z,97539.78
2019-05-25T23:19:45.537Z,97550.46
2019-05-25T23:24:50.284Z,97543.17
2019-05-25T23:29:56.039Z,97543.96
2019-05-25T23:35:00.792Z,97538.75
2019-05-25T23:40:08.442Z,97537.08
2019-05-25T23:45:14.801Z,97542.56
2019-05-25T23:50:19.529Z,97545.34
2019-05-25T23:55:24.269Z,97539.03
